Oberon — SKJF — position and weather

sailwx.info

Track history (hours):
 
Tides and Currents Weather Stations Pressure Air Temp Water Temp Dewpoint Dewpoint Depression Visibility Wind Speed Wind Dir Waves Ship Positions

Oberon

Last reported at 2014-Oct-17 22:05 UTC. Time now 2014-Oct-23 01:43 UTC.
Position N 34°54' E 139°41'.

Length 232 m; draft 10.8 m.

Type: Cargo ship. MMSI: 266283000.

Date/timePositionNaut miles runAvg speedWind from/ knotsBaromVisibWave heightAir tempDewpointWater temp
2014-Oct-17 22:05N 34°54' E 139°41'816.0
2014-Oct-17 21:33N 35°03' E 139°42'1414.4
2014-Oct-17 20:33N 35°17' E 139°45'1111.3
2014-Oct-17 19:33N 35°28' E 139°42'1 0.6
2014-Oct-17 18:33N 35°28' E 139°41'0 0.0
2014-Oct-17 17:33N 35°28' E 139°41'0 0.0
2014-Oct-17 16:33N 35°28' E 139°41'0 0.0
2014-Oct-17 15:33N 35°28' E 139°41'0 0.0
2014-Oct-17 14:33N 35°28' E 139°41'0 0.0
2014-Oct-17 13:33N 35°28' E 139°41'0 0.0
2014-Oct-17 12:33N 35°28' E 139°41'0 0.0
2014-Oct-17 11:33N 35°28' E 139°41'0 0.0
2014-Oct-17 10:33N 35°28' E 139°41'0 0.0
2014-Oct-17 09:33N 35°28' E 139°41'3 2.6
2014-Oct-17 08:33N 35°27' E 139°44'4 3.6
2014-Oct-17 07:33N 35°23' E 139°46'1211.8
2014-Oct-17 06:33N 35°12' E 139°47'1311.7
2014-Oct-17 05:27N 35°01' E 139°37'240 7.8
2014-Oct-15 22:32N 33°55' E 134°57'1818.0
2014-Oct-15 21:33N 34°13' E 134°57'1716.7
2014-Oct-15 20:34N 34°27' E 135°07'1616.3
2014-Oct-15 19:33N 34°41' E 135°19'1 1.0
2014-Oct-15 18:33N 34°41' E 135°17'0 0.0
2014-Oct-15 17:30N 34°41' E 135°17'0 0.0
2014-Oct-15 16:30N 34°41' E 135°17'0 0.0
2014-Oct-15 15:24N 34°41' E 135°17'0 0.0
2014-Oct-15 14:30N 34°41' E 135°17'0 0.0
2014-Oct-15 13:30N 34°41' E 135°17'0 0.0
2014-Oct-15 12:30N 34°41' E 135°17'0 0.0
2014-Oct-15 11:30N 34°41' E 135°17'0 0.0
2014-Oct-15 10:30N 34°41' E 135°17'0 0.0
2014-Oct-15 09:30N 34°41' E 135°17'0 0.0
2014-Oct-15 08:33N 34°41' E 135°17'2 2.1
2014-Oct-15 07:33N 34°39' E 135°19'7 7.2
2014-Oct-15 06:34N 34°33' E 135°15'1414.1
2014-Oct-15 05:33N 34°22' E 135°03'1414.5
2014-Oct-15 04:33N 34°09' E 134°58'4 3.8
2014-Oct-15 03:33N 34°06' E 134°55'1 1.1
2014-Oct-15 02:34N 34°05' E 134°54'1515.2
2014-Oct-15 01:33N 33°50' E 134°57'  
Track history (hours):
 
Tides and Currents Weather Stations Pressure Air Temp Water Temp Dewpoint Dewpoint Depression Visibility Wind Speed Wind Dir Waves Ship Positions

Oberon

Last reported at 2014-Oct-17 22:05 UTC. Time now 2014-Oct-23 01:43 UTC.
Position N 34°54' E 139°41'.

Length 232 m; draft 10.8 m.

Type: Cargo ship. MMSI: 266283000.

Date/timePositionNaut miles runAvg speedWind from/ knotsBaromVisibWave heightAir tempDewpointWater temp
2014-Oct-17 22:05N 34°54' E 139°41'816.0
2014-Oct-17 21:33N 35°03' E 139°42'1414.4
2014-Oct-17 20:33N 35°17' E 139°45'1111.3
2014-Oct-17 19:33N 35°28' E 139°42'1 0.6
2014-Oct-17 18:33N 35°28' E 139°41'0 0.0
2014-Oct-17 17:33N 35°28' E 139°41'0 0.0
2014-Oct-17 16:33N 35°28' E 139°41'0 0.0
2014-Oct-17 15:33N 35°28' E 139°41'0 0.0
2014-Oct-17 14:33N 35°28' E 139°41'0 0.0
2014-Oct-17 13:33N 35°28' E 139°41'0 0.0
2014-Oct-17 12:33N 35°28' E 139°41'0 0.0
2014-Oct-17 11:33N 35°28' E 139°41'0 0.0
2014-Oct-17 10:33N 35°28' E 139°41'0 0.0
2014-Oct-17 09:33N 35°28' E 139°41'3 2.6
2014-Oct-17 08:33N 35°27' E 139°44'4 3.6
2014-Oct-17 07:33N 35°23' E 139°46'1211.8
2014-Oct-17 06:33N 35°12' E 139°47'1311.7
2014-Oct-17 05:27N 35°01' E 139°37'240 7.8
2014-Oct-15 22:32N 33°55' E 134°57'1818.0
2014-Oct-15 21:33N 34°13' E 134°57'1716.7
2014-Oct-15 20:34N 34°27' E 135°07'1616.3
2014-Oct-15 19:33N 34°41' E 135°19'1 1.0
2014-Oct-15 18:33N 34°41' E 135°17'0 0.0
2014-Oct-15 17:30N 34°41' E 135°17'0 0.0
2014-Oct-15 16:30N 34°41' E 135°17'0 0.0
2014-Oct-15 15:24N 34°41' E 135°17'0 0.0
2014-Oct-15 14:30N 34°41' E 135°17'0 0.0
2014-Oct-15 13:30N 34°41' E 135°17'0 0.0
2014-Oct-15 12:30N 34°41' E 135°17'0 0.0
2014-Oct-15 11:30N 34°41' E 135°17'0 0.0
2014-Oct-15 10:30N 34°41' E 135°17'0 0.0
2014-Oct-15 09:30N 34°41' E 135°17'0 0.0
2014-Oct-15 08:33N 34°41' E 135°17'2 2.1
2014-Oct-15 07:33N 34°39' E 135°19'7 7.2
2014-Oct-15 06:34N 34°33' E 135°15'1414.1
2014-Oct-15 05:33N 34°22' E 135°03'1414.5
2014-Oct-15 04:33N 34°09' E 134°58'4 3.8
2014-Oct-15 03:33N 34°06' E 134°55'1 1.1
2014-Oct-15 02:34N 34°05' E 134°54'1515.2
2014-Oct-15 01:33N 33°50' E 134°57'  

Dump ship's entire track history